Hilo, HI

3:51 AM HST on October 01, 2014 (GMT -1000)
Hilo International | Change Station
CLOSE
Current Station
Airport
Location: Hilo,
Elevation: 36 ft
Nearby Weather Stations
Active Advisory: High Surf Advisory Active Notice: Record Report

Elev 36 ft 19.72 °N, 155.05 °W | Updated 58 minutes ago

Partly Cloudy
Partly Cloudy
71 °F
Feels Like 71 °F
N
8
Wind Variable Wind from SW

Today
High -- | Low -- °F
--% Chance of Precip.
Yesterday
High -- | Low -- °F
Precip. -- in
6:11 AM 6:08 PM
Waxing Crescent, 47% visible
Pressure 29.93 in
Visibility 10.0 miles
Clouds Few 3000 ft
Dew Point 65 °F
Humidity 81%
Rainfall 0.01 in
Snow Depth Not available.
UV 0 out of 12
Pollen Not available.
PM2.5 Good
Flu Activity Not available.
METAR PHTO 011253Z 23007KT 10SM FEW030 22/18 A2993 RMK AO2 SLP133 T02170183

More Conditions Fewer Conditions

Pressure 29.93 in
Visibility 10.0 miles
Clouds Few 3000 ft
Dew Point 65 °F
Humidity 81%
Rainfall 0.01 in
Snow Depth Not available.
UV 0 out of 12
Pollen Not available.
PM2.5 Good
Flu Activity Not available.
METAR PHTO 011253Z 23007KT 10SM FEW030 22/18 A2993 RMK AO2 SLP133 T02170183

More Conditions Fewer Conditions

10-Day Weather Forecast

Almanac

Astronomy

Oct. 01, 2014 Rise Set
Actual Time 6:11 AM HST 6:08 PM HST
Civil Twilight 5:49 AM HST 6:30 PM HST
Nautical Twilight 5:23 AM HST 6:55 PM HST
Astronomical Twilight 4:58 AM HST 7:21 PM HST
Moon 12:49 PM HST No Moon Set
Length of Visible Light 12h 41m
Length of Day
11h 57m
Tomorrow will be 1m 6s shorter.
Waxing Crescent, 47% of the Moon is Illuminated
Today
Waxing Crescent
Oct 1
First Quarter
Oct 8
Full
Oct 15
Last Quarter
Oct 23
New

Today's Extremes

State Highs State Lows

Community

WunderPhotos

Upload Photos

1,757,942 photos uploaded!

Nearby

Air Quality

  Air Quality AQ Index Pollutant
Yesterday Good
PM2.5
Current Good
PM2.5

Snow Depth

Station Depth Elevation
No new snow has been reported.

Earthquake Activity

City Distance Mag. Time & Date
No recent earthquake activity has been reported nearby.
Minimum magnitude displayed is 2.5.

Coastal Water Temperatures

Place Temperature
No Stations Reporting

Nearby Weather Stations